Terminal Aerodrome Forecast
Issued by NWS

Home | Current Version | Previous Version | Text Only | Print | Product List | Glossary On
Versions: 1 2 3 4 5 6 7 8 9 10 11 12 13 14 15 16 17 18 19 20 21 22
000
FTUS46 KMFR 252023 AAA
TAFOTH
TAF AMD
KOTH 252023Z 2520/2618 30010KT P6SM OVC009
     FM260300 VRB03KT P6SM OVC007
     FM260800 14005KT P6SM OVC005
     FM261600 VRB03KT P6SM OVC007=

USA.gov is the U.S. government's official web portal to all federal, state and local government web resources and services.